sensor_id;sensor_type;location;lat;lon;timestamp;pressure;altitude;pressure_sealevel;temperature;humidity
1926;BME280;964;42.606;23.588;2023-08-06T18:23:42;93535.53;;;31.50;40.52
1926;BME280;964;42.606;23.588;2023-08-06T18:26:09;93528.97;;;33.98;35.11
1926;BME280;964;42.606;23.588;2023-08-06T18:28:35;93524.38;;;36.20;31.62
1926;BME280;964;42.606;23.588;2023-08-06T18:31:06;93522.56;;;37.15;30.26
1926;BME280;964;42.606;23.588;2023-08-06T18:33:32;93529.97;;;37.28;28.89
1926;BME280;964;42.606;23.588;2023-08-06T18:35:59;93529.53;;;38.81;28.79
1926;BME280;964;42.606;23.588;2023-08-06T18:38:26;93535.69;;;39.75;26.82
1926;BME280;964;42.606;23.588;2023-08-06T18:40:56;93544.25;;;39.54;26.58
1926;BME280;964;42.606;23.588;2023-08-06T18:43:24;93536.63;;;40.86;24.48
1926;BME280;964;42.606;23.588;2023-08-06T18:45:50;93541.63;;;41.04;23.94
1926;BME280;964;42.606;23.588;2023-08-06T18:48:17;93543.25;;;41.25;25.08
1926;BME280;964;42.606;23.588;2023-08-06T18:50:43;93545.03;;;41.47;24.65
1926;BME280;964;42.606;23.588;2023-08-06T18:53:10;93560.41;;;40.96;24.61
1926;BME280;964;42.606;23.588;2023-08-06T18:55:44;93547.63;;;41.62;24.40
1926;BME280;964;42.606;23.588;2023-08-06T18:58:12;93556.38;;;42.48;23.72
1926;BME280;964;42.606;23.588;2023-08-06T19:00:39;93554.28;;;42.76;23.92
1926;BME280;964;42.606;23.588;2023-08-06T19:03:06;93565.34;;;43.03;22.91
1926;BME280;964;42.606;23.588;2023-08-06T19:05:35;93557.78;;;43.72;22.41
1926;BME280;964;42.606;23.588;2023-08-06T19:08:02;93568.56;;;43.47;22.28
1926;BME280;964;42.606;23.588;2023-08-06T19:10:29;93575.88;;;42.94;22.51
1926;BME280;964;42.606;23.588;2023-08-06T19:12:58;93580.16;;;41.69;23.18
1926;BME280;964;42.606;23.588;2023-08-06T19:15:26;93591.72;;;41.39;22.96
1926;BME280;964;42.606;23.588;2023-08-06T19:17:53;93590.75;;;41.36;23.49
1926;BME280;964;42.606;23.588;2023-08-06T19:20:20;93601.16;;;41.19;23.46
1926;BME280;964;42.606;23.588;2023-08-06T19:22:46;93599.50;;;41.67;23.35
1926;BME280;964;42.606;23.588;2023-08-06T19:25:13;93605.09;;;41.16;24.12
1926;BME280;964;42.606;23.588;2023-08-06T19:27:39;93595.94;;;41.57;23.75
1926;BME280;964;42.606;23.588;2023-08-06T19:30:07;93594.28;;;41.37;23.41
1926;BME280;964;42.606;23.588;2023-08-06T19:32:35;93609.28;;;40.82;24.28
1926;BME280;964;42.606;23.588;2023-08-06T19:35:02;93612.28;;;41.19;23.46
1926;BME280;964;42.606;23.588;2023-08-06T19:37:29;93627.03;;;40.87;25.40
1926;BME280;964;42.606;23.588;2023-08-06T19:39:55;93632.97;;;39.69;25.22
1926;BME280;964;42.606;23.588;2023-08-06T19:42:22;93636.13;;;40.87;23.97
1926;BME280;964;42.606;23.588;2023-08-06T19:44:49;93631.28;;;41.47;23.99
1926;BME280;964;42.606;23.588;2023-08-06T19:47:16;93656.22;;;41.20;23.82
1926;BME280;964;42.606;23.588;2023-08-06T19:49:44;93657.84;;;41.75;23.79
1926;BME280;964;42.606;23.588;2023-08-06T19:52:10;93676.56;;;40.56;24.43
1926;BME280;964;42.606;23.588;2023-08-06T19:54:37;93674.50;;;41.48;24.14
1926;BME280;964;42.606;23.588;2023-08-06T19:57:05;93707.31;;;40.58;24.46
1926;BME280;964;42.606;23.588;2023-08-06T19:59:32;93757.22;;;37.13;28.23
1926;BME280;964;42.606;23.588;2023-08-06T20:01:59;93768.97;;;36.52;29.08
1926;BME280;964;42.606;23.588;2023-08-06T20:04:25;93784.03;;;36.64;29.32
1926;BME280;964;42.606;23.588;2023-08-06T20:06:53;93802.97;;;36.13;29.59
1926;BME280;964;42.606;23.588;2023-08-06T20:09:20;93825.09;;;36.33;29.21
1926;BME280;964;42.606;23.588;2023-08-06T20:11:48;93840.19;;;35.93;29.59
1926;BME280;964;42.606;23.588;2023-08-06T20:14:14;93844.03;;;36.97;28.55
1926;BME280;964;42.606;23.588;2023-08-06T20:16:41;93858.53;;;36.04;28.49
1926;BME280;964;42.606;23.588;2023-08-06T20:19:09;93855.81;;;36.51;27.94
1926;BME280;964;42.606;23.588;2023-08-06T20:21:35;93884.78;;;35.52;28.64
1926;BME280;964;42.606;23.588;2023-08-06T20:24:04;93865.72;;;35.54;28.92
1926;BME280;964;42.606;23.588;2023-08-06T20:26:30;93876.69;;;35.28;28.64
1926;BME280;964;42.606;23.588;2023-08-06T20:28:57;93891.94;;;34.60;30.01
1926;BME280;964;42.606;23.588;2023-08-06T20:31:24;93892.91;;;35.31;29.24
1926;BME280;964;42.606;23.588;2023-08-06T20:33:50;93899.06;;;34.50;30.34
1926;BME280;964;42.606;23.588;2023-08-06T20:36:17;93901.50;;;34.10;31.07
1926;BME280;964;42.606;23.588;2023-08-06T20:38:43;93916.13;;;34.85;30.93
1926;BME280;964;42.606;23.588;2023-08-06T20:41:12;93908.44;;;34.97;30.14
1926;BME280;964;42.606;23.588;2023-08-06T20:43:39;93917.97;;;35.47;29.48
1926;BME280;964;42.606;23.588;2023-08-06T20:46:05;93911.50;;;36.15;28.87
1926;BME280;964;42.606;23.588;2023-08-06T20:48:33;93914.91;;;36.61;28.11
1926;BME280;964;42.606;23.588;2023-08-06T20:50:59;93921.78;;;35.43;29.66
1926;BME280;964;42.606;23.588;2023-08-06T20:53:26;93907.22;;;35.75;29.15
1926;BME280;964;42.606;23.588;2023-08-06T20:56:00;93890.03;;;37.49;27.93
1926;BME280;964;42.606;23.588;2023-08-06T20:58:28;93890.81;;;36.35;28.65
1926;BME280;964;42.606;23.588;2023-08-06T21:00:55;93892.47;;;36.98;28.29
1926;BME280;964;42.606;23.588;2023-08-06T21:03:22;93890.22;;;36.76;28.89
1926;BME280;964;42.606;23.588;2023-08-06T21:05:57;93896.00;;;36.65;29.07
1926;BME280;964;42.606;23.588;2023-08-06T21:08:24;93889.63;;;36.30;28.70
1926;BME280;964;42.606;23.588;2023-08-06T21:10:50;93884.53;;;36.61;29.18
1926;BME280;964;42.606;23.588;2023-08-06T21:13:17;93890.50;;;37.61;27.74
1926;BME280;964;42.606;23.588;2023-08-06T21:15:45;93891.28;;;38.25;26.87
1926;BME280;964;42.606;23.588;2023-08-06T21:18:11;93899.81;;;37.29;28.00
1926;BME280;964;42.606;23.588;2023-08-06T21:20:38;93903.91;;;37.15;28.09
1926;BME280;964;42.606;23.588;2023-08-06T21:23:05;93910.47;;;37.67;27.51
1926;BME280;964;42.606;23.588;2023-08-06T21:25:31;93910.00;;;38.04;27.36
1926;BME280;964;42.606;23.588;2023-08-06T21:27:58;93906.94;;;38.87;26.42
1926;BME280;964;42.606;23.588;2023-08-06T21:30:24;93918.88;;;38.03;27.11
1926;BME280;964;42.606;23.588;2023-08-06T21:32:53;93933.31;;;37.88;27.48
1926;BME280;964;42.606;23.588;2023-08-06T21:35:19;93919.66;;;38.39;26.92
1926;BME280;964;42.606;23.588;2023-08-06T21:37:46;93924.09;;;37.93;27.24
1926;BME280;964;42.606;23.588;2023-08-06T21:40:13;93926.69;;;38.48;26.75
1926;BME280;964;42.606;23.588;2023-08-06T21:42:39;93920.75;;;38.44;26.80
1926;BME280;964;42.606;23.588;2023-08-06T21:45:06;93908.31;;;38.73;26.50
1926;BME280;964;42.606;23.588;2023-08-06T21:47:33;93920.97;;;38.17;26.64
1926;BME280;964;42.606;23.588;2023-08-06T21:50:01;93922.50;;;37.49;28.04
1926;BME280;964;42.606;23.588;2023-08-06T21:52:28;93923.84;;;38.04;27.02
1926;BME280;964;42.606;23.588;2023-08-06T21:54:55;93919.41;;;37.80;27.43
1926;BME280;964;42.606;23.588;2023-08-06T21:57:22;93913.66;;;39.14;25.96
1926;BME280;964;42.606;23.588;2023-08-06T21:59:48;93924.50;;;37.48;27.63
1926;BME280;964;42.606;23.588;2023-08-06T22:02:15;93927.88;;;38.32;26.90
1926;BME280;964;42.606;23.588;2023-08-06T22:04:42;93925.97;;;38.83;26.23
1926;BME280;964;42.606;23.588;2023-08-06T22:07:10;93932.22;;;39.57;25.46
1926;BME280;964;42.606;23.588;2023-08-06T22:09:36;93936.72;;;38.94;25.87
1926;BME280;964;42.606;23.588;2023-08-06T22:12:04;93930.38;;;39.45;25.70
1926;BME280;964;42.606;23.588;2023-08-06T22:14:31;93936.34;;;38.54;26.47
1926;BME280;964;42.606;23.588;2023-08-06T22:16:58;93950.03;;;37.83;27.22
1926;BME280;964;42.606;23.588;2023-08-06T22:19:24;93951.66;;;38.91;26.05
1926;BME280;964;42.606;23.588;2023-08-06T22:21:51;93946.53;;;37.41;27.75
1926;BME280;964;42.606;23.588;2023-08-06T22:24:19;93953.91;;;37.59;27.40
1926;BME280;964;42.606;23.588;2023-08-06T22:26:46;93961.03;;;38.45;26.73
1926;BME280;964;42.606;23.588;2023-08-06T22:29:12;93941.44;;;39.37;26.01
1926;BME280;964;42.606;23.588;2023-08-06T22:31:39;93953.28;;;39.60;25.47
1926;BME280;964;42.606;23.588;2023-08-06T22:34:06;93950.03;;;39.92;24.90
1926;BME280;964;42.606;23.588;2023-08-06T22:36:32;93944.47;;;40.00;24.67
1926;BME280;964;42.606;23.588;2023-08-06T22:38:59;93951.44;;;39.33;25.55
1926;BME280;964;42.606;23.588;2023-08-06T22:41:27;93964.16;;;39.28;25.75
1926;BME280;964;42.606;23.588;2023-08-06T22:43:54;93976.75;;;37.80;26.75
1926;BME280;964;42.606;23.588;2023-08-06T22:46:20;93972.91;;;37.83;27.35
1926;BME280;964;42.606;23.588;2023-08-06T22:48:47;93970.75;;;38.38;26.35
1926;BME280;964;42.606;23.588;2023-08-06T22:51:14;93963.38;;;38.69;26.33
1926;BME280;964;42.606;23.588;2023-08-06T22:53:42;93959.44;;;39.00;25.59
1926;BME280;964;42.606;23.588;2023-08-06T22:56:08;93975.94;;;38.13;26.10
1926;BME280;964;42.606;23.588;2023-08-06T22:58:36;93973.06;;;38.26;26.33
1926;BME280;964;42.606;23.588;2023-08-06T23:01:03;93973.34;;;38.72;26.06
1926;BME280;964;42.606;23.588;2023-08-06T23:03:30;93979.00;;;37.82;27.26
1926;BME280;964;42.606;23.588;2023-08-06T23:05:56;93979.88;;;38.25;26.61
1926;BME280;964;42.606;23.588;2023-08-06T23:08:23;93978.50;;;38.68;25.84
1926;BME280;964;42.606;23.588;2023-08-06T23:10:50;93970.31;;;39.42;25.18
1926;BME280;964;42.606;23.588;2023-08-06T23:13:16;93975.53;;;39.83;25.04
1926;BME280;964;42.606;23.588;2023-08-06T23:15:44;93967.78;;;39.89;24.84
1926;BME280;964;42.606;23.588;2023-08-06T23:18:11;93978.50;;;39.78;24.98
1926;BME280;964;42.606;23.588;2023-08-06T23:20:37;93975.91;;;39.87;24.83
1926;BME280;964;42.606;23.588;2023-08-06T23:23:04;93966.31;;;40.19;24.90
1926;BME280;964;42.606;23.588;2023-08-06T23:25:34;93959.63;;;40.22;24.94
1926;BME280;964;42.606;23.588;2023-08-06T23:28:01;93962.94;;;40.12;24.76
1926;BME280;964;42.606;23.588;2023-08-06T23:30:28;93956.84;;;40.29;24.61
1926;BME280;964;42.606;23.588;2023-08-06T23:32:56;93947.78;;;40.06;24.81
1926;BME280;964;42.606;23.588;2023-08-06T23:35:22;93956.31;;;39.85;24.92
1926;BME280;964;42.606;23.588;2023-08-06T23:37:49;93962.56;;;39.63;24.97
1926;BME280;964;42.606;23.588;2023-08-06T23:40:16;93951.69;;;39.95;24.88
1926;BME280;964;42.606;23.588;2023-08-06T23:42:43;93955.94;;;39.96;24.67
1926;BME280;964;42.606;23.588;2023-08-06T23:45:10;93964.41;;;39.68;25.09
1926;BME280;964;42.606;23.588;2023-08-06T23:47:36;93969.25;;;39.01;25.57
1926;BME280;964;42.606;23.588;2023-08-06T23:50:05;93962.03;;;38.98;25.71
1926;BME280;964;42.606;23.588;2023-08-06T23:52:32;93965.38;;;39.04;25.70
1926;BME280;964;42.606;23.588;2023-08-06T23:54:59;93976.81;;;37.88;26.77
1926;BME280;964;42.606;23.588;2023-08-06T23:57:25;93975.00;;;38.67;26.09
1926;BME280;964;42.606;23.588;2023-08-06T23:59:52;93969.59;;;38.54;26.36
